createdAt,value
2018-05-16T00:01:49.058Z,3.00
2018-05-16T00:04:23.465Z,3.30
2018-05-16T00:06:57.837Z,2.87
2018-05-16T00:09:32.239Z,3.03
2018-05-16T00:12:06.670Z,3.80
2018-05-16T00:14:41.896Z,3.20
2018-05-16T00:17:16.402Z,3.13
2018-05-16T00:19:50.708Z,3.00
2018-05-16T00:22:25.245Z,3.63
2018-05-16T00:24:59.593Z,3.90
2018-05-16T00:27:33.846Z,3.57
2018-05-16T00:30:08.344Z,3.97
2018-05-16T00:32:42.733Z,3.83
2018-05-16T00:35:17.033Z,3.50
2018-05-16T00:37:51.556Z,3.60
2018-05-16T00:40:26.580Z,3.37
2018-05-16T00:43:03.491Z,3.57
2018-05-16T00:45:38.109Z,3.00
2018-05-16T00:48:12.505Z,3.30
2018-05-16T00:50:58.625Z,4.00
2018-05-16T00:53:33.124Z,4.00
2018-05-16T00:56:07.493Z,4.07
2018-05-16T00:58:41.781Z,4.17
2018-05-16T01:01:16.072Z,3.97
2018-05-16T01:03:50.480Z,4.43
2018-05-16T01:06:24.749Z,2.77
2018-05-16T01:08:59.183Z,3.50
2018-05-16T01:11:33.436Z,3.73
2018-05-16T01:14:07.733Z,3.97
2018-05-16T01:16:42.119Z,3.03
2018-05-16T01:19:16.519Z,2.70
2018-05-16T01:21:50.820Z,3.10
2018-05-16T01:24:26.693Z,3.90
2018-05-16T01:27:01.944Z,3.47
2018-05-16T01:29:36.446Z,3.80
2018-05-16T01:32:10.810Z,3.13
2018-05-16T01:34:45.129Z,2.80
2018-05-16T01:37:19.430Z,2.77
2018-05-16T01:39:53.904Z,2.73
2018-05-16T01:42:28.346Z,3.10
2018-05-16T01:45:02.800Z,3.00
2018-05-16T01:47:37.177Z,2.87
2018-05-16T01:50:11.440Z,2.80
2018-05-16T01:52:46.568Z,2.53
2018-05-16T01:55:21.801Z,2.90
2018-05-16T01:57:56.238Z,2.60
2018-05-16T02:00:30.549Z,2.70
2018-05-16T02:03:04.983Z,2.87
2018-05-16T02:05:39.584Z,2.70
2018-05-16T02:08:13.915Z,3.17
2018-05-16T02:10:48.345Z,2.87
2018-05-16T02:13:22.789Z,2.80
2018-05-16T02:15:57.245Z,2.80
2018-05-16T02:18:31.901Z,3.00
2018-05-16T02:21:06.319Z,2.90
2018-05-16T02:23:40.664Z,3.20
2018-05-16T02:26:14.968Z,2.63
2018-05-16T02:28:49.322Z,2.43
2018-05-16T02:31:23.661Z,2.80
2018-05-16T02:33:58.126Z,2.67
2018-05-16T02:36:32.435Z,2.80
2018-05-16T02:39:06.921Z,2.70
2018-05-16T02:41:41.394Z,2.60
2018-05-16T02:44:15.963Z,2.50
2018-05-16T02:46:50.252Z,2.77
2018-05-16T02:49:24.746Z,2.50
2018-05-16T02:51:59.268Z,2.33
2018-05-16T02:54:33.676Z,2.60
2018-05-16T02:57:08.112Z,2.80
2018-05-16T02:59:42.421Z,2.40
2018-05-16T03:02:16.709Z,2.47
2018-05-16T03:04:51.068Z,2.60
2018-05-16T03:07:26.272Z,2.60
2018-05-16T03:10:00.780Z,2.57
2018-05-16T03:12:35.160Z,2.97
2018-05-16T03:15:09.677Z,3.03
2018-05-16T03:17:43.953Z,2.50
2018-05-16T03:20:18.492Z,2.70
2018-05-16T03:22:52.798Z,2.80
2018-05-16T03:25:27.933Z,2.23
2018-05-16T03:28:02.388Z,2.50
2018-05-16T03:30:36.703Z,2.70
2018-05-16T03:33:11.925Z,2.73
2018-05-16T03:35:46.523Z,3.13
2018-05-16T03:38:21.069Z,3.50
2018-05-16T03:40:55.511Z,2.40
2018-05-16T03:43:29.812Z,2.70
2018-05-16T03:46:04.250Z,2.83
2018-05-16T03:48:38.642Z,2.57
2018-05-16T03:51:13.005Z,2.77
2018-05-16T03:53:47.485Z,3.07
2018-05-16T03:56:21.886Z,2.40
2018-05-16T03:59:08.045Z,2.90
2018-05-16T04:01:54.179Z,2.70
2018-05-16T04:04:28.494Z,2.80
2018-05-16T04:07:02.930Z,2.70
2018-05-16T04:09:37.491Z,2.50
2018-05-16T04:12:11.815Z,3.03
2018-05-16T04:14:46.134Z,3.57
2018-05-16T04:17:20.411Z,2.50
2018-05-16T04:19:55.599Z,2.53
2018-05-16T04:22:30.086Z,2.90
2018-05-16T04:25:04.650Z,2.93
2018-05-16T04:27:39.025Z,2.63
2018-05-16T04:30:13.424Z,2.93
2018-05-16T04:32:47.818Z,2.97
2018-05-16T04:35:22.288Z,3.53
2018-05-16T04:37:56.592Z,2.93
2018-05-16T04:40:31.070Z,2.83
2018-05-16T04:43:05.525Z,2.63
2018-05-16T04:45:39.866Z,2.73
2018-05-16T04:48:14.320Z,3.30
2018-05-16T04:50:48.681Z,2.80
2018-05-16T04:53:23.120Z,2.80
2018-05-16T04:55:57.444Z,4.00
2018-05-16T04:58:31.727Z,2.53
2018-05-16T05:01:06.027Z,2.50
2018-05-16T05:03:40.375Z,2.80
2018-05-16T05:06:14.644Z,2.70
2018-05-16T05:08:48.979Z,2.70
2018-05-16T05:11:23.309Z,3.00
2018-05-16T05:13:57.787Z,2.50
2018-05-16T05:16:32.429Z,2.77
2018-05-16T05:19:06.959Z,2.60
2018-05-16T05:21:41.348Z,2.47
2018-05-16T05:24:15.679Z,2.80
2018-05-16T05:26:50.433Z,2.37
2018-05-16T05:29:24.733Z,3.00
2018-05-16T05:31:59.067Z,3.30
2018-05-16T05:34:33.435Z,4.20
2018-05-16T05:37:08.011Z,5.60
2018-05-16T05:39:42.424Z,6.13
2018-05-16T05:42:16.728Z,7.33
2018-05-16T05:44:51.153Z,7.13
2018-05-16T05:47:25.673Z,8.47
2018-05-16T05:50:00.034Z,8.47
2018-05-16T05:52:34.521Z,8.37
2018-05-16T05:55:08.960Z,6.47
2018-05-16T05:57:43.369Z,7.57
2018-05-16T06:00:19.292Z,6.77
2018-05-16T06:02:54.673Z,6.33
2018-05-16T06:05:29.248Z,5.80
2018-05-16T06:08:03.653Z,6.00
2018-05-16T06:10:37.967Z,6.67
2018-05-16T06:13:12.385Z,5.93
2018-05-16T06:15:47.522Z,6.40
2018-05-16T06:18:21.880Z,6.20
2018-05-16T06:20:56.446Z,5.13
2018-05-16T06:23:30.948Z,6.63
2018-05-16T06:26:05.267Z,5.53
2018-05-16T06:28:40.381Z,6.63
2018-05-16T06:31:15.643Z,7.10
2018-05-16T06:33:50.157Z,5.77
2018-05-16T06:36:24.580Z,6.37
2018-05-16T06:38:58.882Z,7.67
2018-05-16T06:41:33.330Z,4.70
2018-05-16T06:44:07.629Z,5.77
2018-05-16T06:46:42.052Z,7.73
2018-05-16T06:49:17.205Z,6.70
2018-05-16T06:51:51.630Z,4.37
2018-05-16T06:54:26.742Z,7.60
2018-05-16T06:57:01.192Z,7.40
2018-05-16T06:59:35.620Z,8.30
2018-05-16T07:02:09.869Z,5.00
2018-05-16T07:04:44.416Z,5.97
2018-05-16T07:07:18.875Z,7.07
2018-05-16T07:09:53.259Z,5.67
2018-05-16T07:12:27.608Z,7.93
2018-05-16T07:15:01.909Z,6.53
2018-05-16T07:17:36.431Z,7.40
2018-05-16T07:20:10.880Z,8.53
2018-05-16T07:22:45.305Z,8.23
2018-05-16T07:25:19.797Z,7.83
2018-05-16T07:27:54.746Z,5.10
2018-05-16T07:30:29.247Z,4.57
2018-05-16T07:33:03.665Z,7.03
2018-05-16T07:35:38.004Z,5.33
2018-05-16T07:38:12.268Z,8.40
2018-05-16T07:40:47.316Z,4.77
2018-05-16T07:43:21.886Z,8.67
2018-05-16T07:45:56.284Z,7.80
2018-05-16T07:48:30.945Z,7.10
2018-05-16T07:51:05.353Z,9.23
2018-05-16T07:53:39.636Z,9.20
2018-05-16T07:56:14.092Z,8.93
2018-05-16T07:58:48.479Z,9.20
2018-05-16T08:01:22.929Z,9.17
2018-05-16T08:03:57.238Z,6.07
2018-05-16T08:06:31.758Z,8.63
2018-05-16T08:09:06.148Z,9.70
2018-05-16T08:11:40.489Z,9.97
2018-05-16T08:14:14.835Z,10.87
2018-05-16T08:16:49.167Z,5.80
2018-05-16T08:19:23.453Z,10.17
2018-05-16T08:21:58.089Z,8.20
2018-05-16T08:24:32.551Z,7.20
2018-05-16T08:27:06.905Z,8.00
2018-05-16T08:29:41.355Z,8.77
2018-05-16T08:32:15.735Z,9.87
2018-05-16T08:34:50.181Z,9.47
2018-05-16T08:37:24.547Z,13.50
2018-05-16T08:39:58.871Z,11.83
2018-05-16T08:42:33.163Z,7.93
2018-05-16T08:45:07.532Z,7.53
2018-05-16T08:47:41.895Z,6.43
2018-05-16T08:50:16.510Z,6.60
2018-05-16T08:52:52.446Z,12.43
2018-05-16T08:55:26.809Z,7.40
2018-05-16T08:58:01.164Z,7.20
2018-05-16T09:00:35.615Z,10.77
2018-05-16T09:03:09.925Z,10.37
2018-05-16T09:05:44.322Z,8.20
2018-05-16T09:08:19.367Z,7.23
2018-05-16T09:10:53.631Z,6.93
2018-05-16T09:13:28.122Z,9.53
2018-05-16T09:16:02.527Z,9.97
2018-05-16T09:18:36.946Z,6.00
2018-05-16T09:21:11.361Z,6.87
2018-05-16T09:23:45.818Z,6.63
2018-05-16T09:26:20.243Z,6.03
2018-05-16T09:28:54.753Z,6.67
2018-05-16T09:31:29.163Z,6.93
2018-05-16T09:34:04.314Z,6.37
2018-05-16T09:36:38.733Z,9.30
2018-05-16T09:39:13.227Z,8.30
2018-05-16T09:41:47.681Z,5.67
2018-05-16T09:44:22.117Z,6.27
2018-05-16T09:46:56.498Z,8.37
2018-05-16T09:49:31.070Z,8.50
2018-05-16T09:52:05.409Z,4.83
2018-05-16T09:54:39.697Z,5.93
2018-05-16T09:57:14.012Z,8.77
2018-05-16T09:59:48.545Z,8.70
2018-05-16T10:02:22.955Z,7.57
2018-05-16T10:04:57.321Z,8.60
2018-05-16T10:07:31.591Z,8.33
2018-05-16T10:10:05.893Z,8.90
2018-05-16T10:12:40.423Z,6.17
2018-05-16T10:15:14.755Z,8.00
2018-05-16T10:17:49.037Z,5.37
2018-05-16T10:20:23.387Z,8.20
2018-05-16T10:22:57.769Z,7.80
2018-05-16T10:25:32.350Z,7.87
2018-05-16T10:28:06.675Z,6.10
2018-05-16T10:30:41.072Z,7.10
2018-05-16T10:33:15.600Z,6.97
2018-05-16T10:35:50.005Z,6.60
2018-05-16T10:38:24.358Z,7.97
2018-05-16T10:40:58.658Z,7.37
2018-05-16T10:43:33.224Z,6.23
2018-05-16T10:46:07.661Z,7.40
2018-05-16T10:48:41.981Z,6.97
2018-05-16T10:51:16.437Z,5.10
2018-05-16T10:53:50.757Z,4.90
2018-05-16T10:56:25.105Z,7.03
2018-05-16T10:58:59.370Z,6.73
2018-05-16T11:01:33.697Z,6.03
2018-05-16T11:04:08.040Z,5.43
2018-05-16T11:06:42.373Z,4.77
2018-05-16T11:09:16.778Z,5.93
2018-05-16T11:11:51.142Z,6.00
2018-05-16T11:14:25.516Z,4.30
2018-05-16T11:17:00.666Z,5.37
2018-05-16T11:19:35.157Z,4.43
2018-05-16T11:22:09.557Z,4.50
2018-05-16T11:24:43.975Z,4.30
2018-05-16T11:27:18.535Z,4.87
2018-05-16T11:29:52.953Z,4.90
2018-05-16T11:32:28.093Z,4.70
2018-05-16T11:35:02.510Z,4.30
2018-05-16T11:37:36.858Z,4.50
2018-05-16T11:40:11.345Z,4.90
2018-05-16T11:42:45.762Z,4.30
2018-05-16T11:45:20.093Z,5.37
2018-05-16T11:47:54.524Z,4.87
2018-05-16T11:50:28.819Z,5.93
2018-05-16T11:53:03.252Z,5.70
2018-05-16T11:55:37.714Z,5.47
2018-05-16T11:58:12.938Z,6.10
2018-05-16T12:00:47.537Z,4.83
2018-05-16T12:03:21.810Z,4.43
2018-05-16T12:05:56.944Z,5.50
2018-05-16T12:08:31.314Z,5.13
2018-05-16T12:11:05.591Z,4.90
2018-05-16T12:13:40.739Z,5.23
2018-05-16T12:16:15.050Z,4.90
2018-05-16T12:18:50.339Z,5.20
2018-05-16T12:21:25.425Z,5.37
2018-05-16T12:23:59.885Z,5.10
2018-05-16T12:26:34.200Z,5.17
2018-05-16T12:29:08.515Z,5.43
2018-05-16T12:31:43.042Z,5.77
2018-05-16T12:34:17.479Z,5.97
2018-05-16T12:36:51.775Z,5.23
2018-05-16T12:39:26.181Z,6.40
2018-05-16T12:42:00.500Z,4.97
2018-05-16T12:44:34.936Z,6.50
2018-05-16T12:47:09.214Z,5.20
2018-05-16T12:49:44.295Z,4.20
2018-05-16T12:52:18.562Z,6.47
2018-05-16T12:54:53.024Z,5.60
2018-05-16T12:57:27.287Z,5.63
2018-05-16T13:00:02.607Z,6.23
2018-05-16T13:02:36.889Z,5.23
2018-05-16T13:05:11.400Z,5.50
2018-05-16T13:07:45.725Z,8.40
2018-05-16T13:10:20.048Z,5.20
2018-05-16T13:12:54.634Z,8.93
2018-05-16T13:15:28.884Z,7.30
2018-05-16T13:18:03.239Z,11.07
2018-05-16T13:20:37.859Z,9.37
2018-05-16T13:23:12.154Z,6.57
2018-05-16T13:25:46.604Z,5.20
2018-05-16T13:28:21.065Z,6.50
2018-05-16T13:30:55.437Z,5.60
2018-05-16T13:33:29.709Z,10.90
2018-05-16T13:36:04.872Z,9.10
2018-05-16T13:38:40.151Z,7.00
2018-05-16T13:41:14.509Z,4.30
2018-05-16T13:43:48.856Z,7.57
2018-05-16T13:46:23.320Z,12.10
2018-05-16T13:48:57.621Z,5.80
2018-05-16T13:51:31.939Z,5.57
2018-05-16T13:54:06.348Z,11.17
2018-05-16T13:56:40.806Z,10.10
2018-05-16T13:59:15.192Z,9.10
2018-05-16T14:01:49.588Z,5.37
2018-05-16T14:04:23.977Z,9.40
2018-05-16T14:06:58.436Z,9.23
2018-05-16T14:09:32.940Z,6.90
2018-05-16T14:12:08.194Z,4.73
2018-05-16T14:14:42.913Z,6.87
2018-05-16T14:17:17.263Z,4.73
2018-05-16T14:19:51.679Z,9.67
2018-05-16T14:22:26.062Z,7.00
2018-05-16T14:25:00.389Z,9.43
2018-05-16T14:27:34.922Z,5.30
2018-05-16T14:30:09.349Z,8.73
2018-05-16T14:32:43.722Z,6.50
2018-05-16T14:35:18.198Z,8.27
2018-05-16T14:37:52.461Z,6.70
2018-05-16T14:40:26.769Z,5.60
2018-05-16T14:43:01.094Z,5.43
2018-05-16T14:45:35.420Z,5.90
2018-05-16T14:48:09.763Z,5.73
2018-05-16T14:50:44.121Z,6.10
2018-05-16T14:53:18.460Z,6.07
2018-05-16T14:55:52.904Z,5.00
2018-05-16T14:58:27.463Z,5.10
2018-05-16T15:01:01.759Z,5.20
2018-05-16T15:03:36.130Z,5.03
2018-05-16T15:06:10.407Z,5.17
2018-05-16T15:08:44.729Z,4.40
2018-05-16T15:11:19.166Z,4.80
2018-05-16T15:13:53.498Z,5.83
2018-05-16T15:16:27.862Z,6.40
2018-05-16T15:19:03.052Z,6.33
2018-05-16T15:21:37.669Z,5.73
2018-05-16T15:24:12.185Z,5.20
2018-05-16T15:26:46.568Z,5.50
2018-05-16T15:29:20.898Z,5.97
2018-05-16T15:31:55.224Z,6.17
2018-05-16T15:34:29.776Z,5.67
2018-05-16T15:37:04.163Z,5.57
2018-05-16T15:39:38.557Z,5.90
2018-05-16T15:42:13.031Z,6.13
2018-05-16T15:44:47.384Z,3.93
2018-05-16T15:47:21.702Z,2.77
2018-05-16T15:49:56.097Z,2.83
2018-05-16T15:52:30.531Z,2.80
2018-05-16T15:55:05.053Z,2.80
2018-05-16T15:57:39.337Z,2.53
2018-05-16T16:00:13.779Z,2.93
2018-05-16T16:02:48.252Z,3.07
2018-05-16T16:05:22.916Z,2.80
2018-05-16T16:07:57.415Z,3.03
2018-05-16T16:10:31.758Z,2.63
2018-05-16T16:13:06.897Z,3.27
2018-05-16T16:15:41.301Z,2.83
2018-05-16T16:18:15.671Z,3.50
2018-05-16T16:20:50.015Z,3.30
2018-05-16T16:23:24.581Z,2.60
2018-05-16T16:25:59.054Z,3.17
2018-05-16T16:28:33.638Z,2.63
2018-05-16T16:31:08.044Z,3.73
2018-05-16T16:33:42.345Z,2.97
2018-05-16T16:36:16.686Z,3.43
2018-05-16T16:38:51.177Z,3.47
2018-05-16T16:41:25.413Z,3.67
2018-05-16T16:43:59.753Z,2.67
2018-05-16T16:46:34.904Z,3.67
2018-05-16T16:49:09.401Z,5.50
2018-05-16T16:51:43.665Z,5.80
2018-05-16T16:54:17.956Z,6.87
2018-05-16T16:56:52.471Z,5.40
2018-05-16T16:59:26.753Z,6.47
2018-05-16T17:02:01.296Z,6.97
2018-05-16T17:04:35.810Z,7.57
2018-05-16T17:07:10.837Z,5.30
2018-05-16T17:09:45.158Z,5.67
2018-05-16T17:12:19.478Z,4.47
2018-05-16T17:14:53.753Z,5.60
2018-05-16T17:17:28.062Z,4.77
2018-05-16T17:20:02.413Z,4.57
2018-05-16T17:22:36.708Z,4.73
2018-05-16T17:25:11.293Z,4.40
2018-05-16T17:27:45.814Z,4.80
2018-05-16T17:30:20.141Z,4.00
2018-05-16T17:32:54.448Z,3.87
2018-05-16T17:35:29.585Z,4.03
2018-05-16T17:38:04.076Z,3.43
2018-05-16T17:40:38.317Z,3.80
2018-05-16T17:43:12.728Z,3.50
2018-05-16T17:45:47.184Z,3.60
2018-05-16T17:48:21.628Z,4.13
2018-05-16T17:50:55.953Z,3.50
2018-05-16T17:53:30.306Z,4.10
2018-05-16T17:56:04.733Z,3.90
2018-05-16T17:58:39.078Z,3.77
2018-05-16T18:01:13.385Z,3.60
2018-05-16T18:03:47.760Z,3.87
2018-05-16T18:06:22.072Z,3.83
2018-05-16T18:08:57.155Z,3.80
2018-05-16T18:11:31.587Z,3.87
2018-05-16T18:14:17.643Z,3.73
2018-05-16T18:17:04.088Z,3.40
2018-05-16T18:19:38.593Z,3.77
2018-05-16T18:22:12.994Z,3.90
2018-05-16T18:24:47.319Z,3.57
2018-05-16T18:27:21.645Z,3.97
2018-05-16T18:29:56.180Z,3.27
2018-05-16T18:32:31.536Z,3.50
2018-05-16T18:35:06.048Z,3.57
2018-05-16T18:37:40.725Z,3.27
2018-05-16T18:40:15.007Z,3.63
2018-05-16T18:42:50.236Z,3.30
2018-05-16T18:45:24.656Z,4.17
2018-05-16T18:47:59.890Z,3.47
2018-05-16T18:50:34.221Z,3.90
2018-05-16T18:53:08.494Z,4.40
2018-05-16T18:55:42.881Z,3.87
2018-05-16T18:58:17.207Z,4.13
2018-05-16T19:00:51.452Z,3.40
2018-05-16T19:03:25.797Z,3.67
2018-05-16T19:06:00.111Z,3.60
2018-05-16T19:08:34.442Z,3.83
2018-05-16T19:11:08.780Z,3.20
2018-05-16T19:13:43.176Z,3.10
2018-05-16T19:16:17.667Z,4.13
2018-05-16T19:18:51.894Z,3.90
2018-05-16T19:21:27.677Z,4.13
2018-05-16T19:24:02.070Z,3.93
2018-05-16T19:26:36.512Z,3.67
2018-05-16T19:29:10.788Z,3.60
2018-05-16T19:31:45.286Z,2.87
2018-05-16T19:34:19.658Z,3.67
2018-05-16T19:36:54.579Z,3.60
2018-05-16T19:39:29.076Z,2.97
2018-05-16T19:42:04.168Z,3.03
2018-05-16T19:44:38.594Z,4.20
2018-05-16T19:47:13.712Z,3.10
2018-05-16T19:49:48.077Z,3.37
2018-05-16T19:52:22.360Z,3.30
2018-05-16T19:54:56.713Z,2.80
2018-05-16T19:57:31.065Z,3.83
2018-05-16T20:00:05.424Z,4.13
2018-05-16T20:02:39.840Z,2.57
2018-05-16T20:05:14.140Z,4.03
2018-05-16T20:07:48.516Z,3.23
2018-05-16T20:10:22.905Z,4.23
2018-05-16T20:12:57.340Z,3.47
2018-05-16T20:15:31.740Z,2.87
2018-05-16T20:18:06.158Z,2.93
2018-05-16T20:20:40.564Z,3.60
2018-05-16T20:23:15.808Z,3.40
2018-05-16T20:25:50.174Z,3.30
2018-05-16T20:28:24.856Z,2.90
2018-05-16T20:31:00.307Z,4.67
2018-05-16T20:33:34.785Z,5.37
2018-05-16T20:36:09.157Z,2.90
2018-05-16T20:38:43.414Z,4.47
2018-05-16T20:41:17.881Z,4.07
2018-05-16T20:43:52.159Z,3.00
2018-05-16T20:46:26.453Z,3.30
2018-05-16T20:49:00.712Z,4.03
2018-05-16T20:51:35.037Z,3.23
2018-05-16T20:54:09.591Z,2.63
2018-05-16T20:56:44.113Z,3.03
2018-05-16T20:59:18.618Z,2.77
2018-05-16T21:01:53.035Z,2.53
2018-05-16T21:04:27.336Z,3.30
2018-05-16T21:07:01.766Z,2.87
2018-05-16T21:09:36.120Z,2.83
2018-05-16T21:12:10.523Z,3.37
2018-05-16T21:14:44.862Z,3.20
2018-05-16T21:17:19.261Z,2.90
2018-05-16T21:19:54.387Z,3.20
2018-05-16T21:22:28.738Z,2.73
2018-05-16T21:25:03.825Z,3.07
2018-05-16T21:27:38.489Z,2.93
2018-05-16T21:30:12.840Z,2.83
2018-05-16T21:32:47.124Z,2.43
2018-05-16T21:35:21.553Z,2.63
2018-05-16T21:37:55.954Z,2.43
2018-05-16T21:40:30.640Z,3.40
2018-05-16T21:43:05.108Z,3.50
2018-05-16T21:45:39.447Z,2.90
2018-05-16T21:48:13.775Z,3.03
2018-05-16T21:50:49.002Z,2.70
2018-05-16T21:53:23.403Z,2.70
2018-05-16T21:55:57.925Z,3.60
2018-05-16T21:58:32.227Z,3.10
2018-05-16T22:01:06.572Z,2.43
2018-05-16T22:03:40.994Z,3.30
2018-05-16T22:06:15.427Z,2.70
2018-05-16T22:08:49.818Z,2.47
2018-05-16T22:11:24.306Z,2.90
2018-05-16T22:13:59.374Z,2.87
2018-05-16T22:16:33.782Z,3.37
2018-05-16T22:19:08.141Z,3.03
2018-05-16T22:21:42.556Z,2.30
2018-05-16T22:24:16.972Z,3.10
2018-05-16T22:26:51.451Z,2.53
2018-05-16T22:29:25.676Z,2.40
2018-05-16T22:32:05.872Z,2.63
2018-05-16T22:34:45.883Z,2.73
2018-05-16T22:37:25.955Z,2.70
2018-05-16T22:40:05.951Z,2.50
2018-05-16T22:42:39.845Z,3.00
2018-05-16T22:48:18.772Z,2.37
2018-05-16T22:50:53.212Z,2.83
2018-05-16T22:53:27.513Z,2.23
2018-05-16T22:56:01.908Z,2.67
2018-05-16T22:58:36.417Z,2.80
2018-05-16T23:01:10.775Z,3.03
2018-05-16T23:03:45.203Z,2.83
2018-05-16T23:06:19.482Z,2.20
2018-05-16T23:08:53.887Z,3.00
2018-05-16T23:11:28.158Z,3.30
2018-05-16T23:14:02.520Z,2.73
2018-05-16T23:16:36.992Z,3.00
2018-05-16T23:19:11.289Z,2.03
2018-05-16T23:21:45.584Z,2.53
2018-05-16T23:24:20.065Z,3.30
2018-05-16T23:26:54.558Z,3.17
2018-05-16T23:29:29.092Z,2.40
2018-05-16T23:32:04.232Z,3.13
2018-05-16T23:34:38.657Z,3.07
2018-05-16T23:37:13.067Z,3.27
2018-05-16T23:39:47.572Z,2.93
2018-05-16T23:42:22.625Z,2.77
2018-05-16T23:44:56.947Z,3.13
2018-05-16T23:47:31.252Z,2.70
2018-05-16T23:50:05.578Z,2.80
2018-05-16T23:52:40.120Z,2.90
2018-05-16T23:55:14.761Z,2.30
2018-05-16T23:57:49.042Z,2.57
